Time;durP1;ratioP1;P1;durP2;ratioP2;P2;SDS_P1;SDS_P2;PMS_P1;PMS_P2;Temp;Humidity;BMP_temperature;BMP_pressure;BME280_temperature;BME280_humidity;BME280_pressure;Samples;Min_cycle;Max_cycle;Signal;HPM_P1;HPM_P2
2024/01/03 00:01:10;;;;;;;4.82;3.40;;;;;;;;;;5064967;28;20029;-71
2024/01/03 00:03:35;;;;;;;5.00;3.30;;;;;;;;;;5053101;28;20554;-71
2024/01/03 00:06:01;;;;;;;4.90;3.20;;;;;;;;;;5054367;28;20051;-71
2024/01/03 00:08:26;;;;;;;3.92;2.75;;;;;;;;;;5053301;28;20120;-71
2024/01/03 00:10:52;;;;;;;3.92;3.00;;;;;;;;;;5061635;28;20181;-71
2024/01/03 00:13:27;;;;;;;4.50;3.20;;;;;;;;;;5065100;28;20508;-71
2024/01/03 00:16:01;;;;;;;4.05;3.17;;;;;;;;;;5049039;28;20524;-71
2024/01/03 00:18:47;;;;;;;4.85;3.55;;;;;;;;;;5051485;28;20029;-71
2024/01/03 00:21:14;;;;;;;5.63;3.60;;;;;;;;;;5061181;28;20036;-71
2024/01/03 00:23:52;;;;;;;4.22;3.22;;;;;;;;;;5041374;28;20033;-71
2024/01/03 00:26:17;;;;;;;4.57;3.03;;;;;;;;;;5050400;28;20036;-71
2024/01/03 00:28:43;;;;;;;4.95;3.60;;;;;;;;;;5078686;28;20523;-70
2024/01/03 00:31:16;;;;;;;4.22;3.20;;;;;;;;;;5054185;28;20837;-70
2024/01/03 00:33:42;;;;;;;4.40;3.20;;;;;;;;;;5047948;28;20036;-70
2024/01/03 00:36:08;;;;;;;4.72;3.75;;;;;;;;;;5046402;28;20029;-70
2024/01/03 00:38:36;;;;;;;4.65;3.03;;;;;;;;;;5064649;28;20051;-70
2024/01/03 00:41:02;;;;;;;4.80;3.72;;;;;;;;;;5050134;28;20044;-70
2024/01/03 00:43:27;;;;;;;4.20;3.08;;;;;;;;;;5044661;28;20037;-71
2024/01/03 00:45:52;;;;;;;4.50;3.25;;;;;;;;;;5041711;28;20042;-71
2024/01/03 00:48:18;;;;;;;4.78;3.30;;;;;;;;;;5045449;28;20428;-70
2024/01/03 00:50:43;;;;;;;4.38;3.15;;;;;;;;;;5064786;28;20116;-71
2024/01/03 00:53:08;;;;;;;5.40;3.10;;;;;;;;;;5052285;28;20254;-72
2024/01/03 00:55:34;;;;;;;4.80;3.22;;;;;;;;;;5036215;28;20072;-71
2024/01/03 00:57:59;;;;;;;5.10;3.30;;;;;;;;;;5062871;28;20045;-70
2024/01/03 01:00:24;;;;;;;4.28;3.38;;;;;;;;;;5038299;28;20095;-71
2024/01/03 01:02:50;;;;;;;5.70;3.53;;;;;;;;;;5050685;28;20470;-71
2024/01/03 01:05:15;;;;;;;3.88;3.00;;;;;;;;;;5041716;28;20115;-71
2024/01/03 01:07:41;;;;;;;4.13;3.25;;;;;;;;;;5059584;28;20067;-71
2024/01/03 01:10:06;;;;;;;4.45;3.15;;;;;;;;;;5050281;28;20068;-71
2024/01/03 01:12:31;;;;;;;4.75;3.22;;;;;;;;;;5055501;28;20033;-71
2024/01/03 01:14:59;;;;;;;4.45;3.30;;;;;;;;;;5058559;28;20491;-72
2024/01/03 01:17:25;;;;;;;4.03;3.33;;;;;;;;;;5051472;28;20067;-71
2024/01/03 01:19:51;;;;;;;4.63;3.33;;;;;;;;;;5036883;28;20357;-71
2024/01/03 01:22:16;;;;;;;4.65;3.30;;;;;;;;;;5057148;28;20052;-71
2024/01/03 01:24:41;;;;;;;5.05;3.28;;;;;;;;;;5059295;28;20132;-71
2024/01/03 01:27:07;;;;;;;4.22;3.10;;;;;;;;;;5058985;28;20515;-71
2024/01/03 01:29:32;;;;;;;3.72;3.17;;;;;;;;;;5044916;28;20044;-71
2024/01/03 01:31:57;;;;;;;4.47;3.38;;;;;;;;;;5036445;28;20049;-72
2024/01/03 01:34:23;;;;;;;3.90;2.90;;;;;;;;;;5061654;28;20033;-71
2024/01/03 01:36:48;;;;;;;3.42;2.85;;;;;;;;;;5052399;28;20156;-71
2024/01/03 01:39:14;;;;;;;5.03;3.92;;;;;;;;;;5049659;28;20051;-71
2024/01/03 01:41:39;;;;;;;4.97;3.20;;;;;;;;;;5063477;28;20050;-71
2024/01/03 01:44:05;;;;;;;4.78;3.25;;;;;;;;;;5059958;28;20519;-71
2024/01/03 01:46:30;;;;;;;4.32;3.20;;;;;;;;;;5061531;28;20029;-71
2024/01/03 01:48:55;;;;;;;4.20;3.10;;;;;;;;;;5064828;28;20028;-71
2024/01/03 01:51:21;;;;;;;4.38;3.25;;;;;;;;;;5062108;28;20078;-71
2024/01/03 01:53:47;;;;;;;5.28;3.17;;;;;;;;;;5057447;28;20420;-72
2024/01/03 01:56:12;;;;;;;4.88;3.50;;;;;;;;;;5057621;28;20429;-71
2024/01/03 01:58:38;;;;;;;4.65;3.25;;;;;;;;;;5062334;28;20045;-71
2024/01/03 02:01:03;;;;;;;4.55;3.30;;;;;;;;;;5068263;28;20029;-71
2024/01/03 02:03:30;;;;;;;4.85;3.53;;;;;;;;;;5068083;28;20108;-72
2024/01/03 02:05:55;;;;;;;4.13;3.33;;;;;;;;;;5063994;28;20014;-72
2024/01/03 02:08:20;;;;;;;3.97;3.03;;;;;;;;;;5070895;28;20049;-72
2024/01/03 02:10:46;;;;;;;5.05;3.50;;;;;;;;;;5088854;28;20032;-72
2024/01/03 02:13:11;;;;;;;4.47;3.10;;;;;;;;;;5074416;28;20047;-72
2024/01/03 02:15:36;;;;;;;5.03;3.42;;;;;;;;;;5064972;28;20032;-71
2024/01/03 02:18:02;;;;;;;4.88;3.20;;;;;;;;;;5050190;28;20048;-71
2024/01/03 02:20:30;;;;;;;4.35;3.47;;;;;;;;;;5060295;28;20418;-71
2024/01/03 02:22:55;;;;;;;4.75;3.10;;;;;;;;;;5050502;28;20415;-71
2024/01/03 02:25:21;;;;;;;3.90;3.33;;;;;;;;;;5066030;28;20029;-71
2024/01/03 02:27:46;;;;;;;5.15;3.20;;;;;;;;;;5063508;28;20036;-71
2024/01/03 02:30:12;;;;;;;4.68;3.42;;;;;;;;;;5056352;28;20040;-71
2024/01/03 02:32:37;;;;;;;4.72;3.40;;;;;;;;;;5050670;28;20086;-71
2024/01/03 02:35:04;;;;;;;3.85;3.03;;;;;;;;;;5059885;28;20060;-71
2024/01/03 02:37:30;;;;;;;4.75;3.35;;;;;;;;;;5043658;28;20502;-71
2024/01/03 02:39:55;;;;;;;4.13;3.17;;;;;;;;;;5037871;28;20034;-71
2024/01/03 02:42:20;;;;;;;4.18;3.47;;;;;;;;;;5037670;28;20148;-71
2024/01/03 02:44:45;;;;;;;4.50;3.00;;;;;;;;;;5041902;28;20040;-70
2024/01/03 02:47:11;;;;;;;4.10;3.25;;;;;;;;;;5041803;28;20515;-71
2024/01/03 02:49:36;;;;;;;4.72;3.40;;;;;;;;;;5045165;28;20108;-71
2024/01/03 02:52:01;;;;;;;4.45;3.60;;;;;;;;;;5046825;28;20037;-71
2024/01/03 02:54:27;;;;;;;4.97;3.22;;;;;;;;;;5058440;28;20439;-71
2024/01/03 02:56:53;;;;;;;5.30;3.30;;;;;;;;;;5048874;28;20041;-71
2024/01/03 02:59:19;;;;;;;4.85;3.42;;;;;;;;;;5046654;28;20037;-71
2024/01/03 03:01:44;;;;;;;4.57;3.28;;;;;;;;;;5057157;28;20043;-71
2024/01/03 03:04:09;;;;;;;4.30;3.10;;;;;;;;;;5043356;28;20040;-71
2024/01/03 03:06:35;;;;;;;4.95;3.72;;;;;;;;;;5050627;28;20029;-71
2024/01/03 03:09:00;;;;;;;4.20;3.30;;;;;;;;;;5053483;28;20032;-71
2024/01/03 03:11:25;;;;;;;4.05;3.05;;;;;;;;;;5056215;28;20091;-71
2024/01/03 03:13:51;;;;;;;4.00;3.22;;;;;;;;;;5054403;28;20057;-71
2024/01/03 03:16:16;;;;;;;4.13;3.25;;;;;;;;;;5050633;28;20045;-71
2024/01/03 03:18:41;;;;;;;4.95;3.30;;;;;;;;;;5052431;28;20554;-71
2024/01/03 03:21:07;;;;;;;4.68;3.40;;;;;;;;;;5052299;28;20041;-71
2024/01/03 03:23:32;;;;;;;4.00;3.22;;;;;;;;;;5049699;28;20048;-71
2024/01/03 03:26:00;;;;;;;4.82;3.40;;;;;;;;;;5053326;28;20118;-71
2024/01/03 03:28:25;;;;;;;3.88;3.17;;;;;;;;;;5052012;28;20033;-71
2024/01/03 03:30:50;;;;;;;4.55;3.30;;;;;;;;;;5062131;28;20063;-71
2024/01/03 03:33:15;;;;;;;4.20;3.35;;;;;;;;;;5050472;28;20143;-71
2024/01/03 03:35:41;;;;;;;4.40;3.38;;;;;;;;;;5048633;28;20040;-71
2024/01/03 03:38:06;;;;;;;4.63;3.20;;;;;;;;;;5054815;28;20060;-71
2024/01/03 03:40:32;;;;;;;4.22;3.35;;;;;;;;;;5070547;28;20033;-71
2024/01/03 03:42:57;;;;;;;5.00;3.53;;;;;;;;;;5046986;28;20040;-71
2024/01/03 03:45:23;;;;;;;5.40;3.60;;;;;;;;;;5052776;28;20064;-70
2024/01/03 03:47:49;;;;;;;4.53;3.38;;;;;;;;;;5053515;28;20124;-71
2024/01/03 03:50:14;;;;;;;4.20;3.15;;;;;;;;;;5045124;28;20170;-71
2024/01/03 03:52:40;;;;;;;4.25;3.05;;;;;;;;;;5038787;28;20423;-71
2024/01/03 03:55:06;;;;;;;4.63;3.25;;;;;;;;;;5020112;28;20041;-71
2024/01/03 03:57:31;;;;;;;4.03;3.17;;;;;;;;;;5055001;28;20171;-71
2024/01/03 03:59:57;;;;;;;3.95;3.10;;;;;;;;;;5049899;28;20036;-71
2024/01/03 04:02:23;;;;;;;4.30;3.25;;;;;;;;;;5051527;28;20033;-71
2024/01/03 04:04:48;;;;;;;3.78;3.22;;;;;;;;;;5051645;28;20043;-71
2024/01/03 04:07:14;;;;;;;5.00;3.55;;;;;;;;;;5051248;28;20060;-71
2024/01/03 04:09:42;;;;;;;4.80;3.33;;;;;;;;;;5044754;28;20496;-71
2024/01/03 04:12:10;;;;;;;4.63;3.47;;;;;;;;;;5044962;28;20037;-71
2024/01/03 04:14:36;;;;;;;4.80;3.33;;;;;;;;;;5057100;28;20036;-71
2024/01/03 04:17:02;;;;;;;4.38;3.20;;;;;;;;;;5052652;28;20463;-71
2024/01/03 04:19:27;;;;;;;3.38;2.83;;;;;;;;;;5065267;28;20128;-71
2024/01/03 04:21:52;;;;;;;4.38;3.10;;;;;;;;;;5047958;28;20045;-71
2024/01/03 04:24:18;;;;;;;4.38;3.70;;;;;;;;;;5062615;28;20041;-71
2024/01/03 04:26:43;;;;;;;3.70;2.90;;;;;;;;;;5058240;28;20124;-71
2024/01/03 04:29:09;;;;;;;3.90;3.00;;;;;;;;;;5053587;28;20534;-72
2024/01/03 04:31:34;;;;;;;4.28;3.40;;;;;;;;;;5043290;28;20090;-71
2024/01/03 04:34:00;;;;;;;4.50;3.20;;;;;;;;;;5056820;28;20065;-70
2024/01/03 04:36:25;;;;;;;4.18;3.10;;;;;;;;;;5077111;28;20043;-72
2024/01/03 04:38:50;;;;;;;4.22;3.35;;;;;;;;;;5067597;28;20039;-71
2024/01/03 04:41:16;;;;;;;4.93;3.45;;;;;;;;;;5063214;28;20673;-71
2024/01/03 04:43:42;;;;;;;4.63;3.30;;;;;;;;;;5050251;28;20599;-71
2024/01/03 04:46:07;;;;;;;4.53;3.40;;;;;;;;;;5056390;28;20076;-71
2024/01/03 04:48:32;;;;;;;5.00;3.45;;;;;;;;;;5063272;28;20076;-71
2024/01/03 04:50:58;;;;;;;5.30;3.30;;;;;;;;;;5051936;28;20043;-70
2024/01/03 04:53:23;;;;;;;4.57;3.17;;;;;;;;;;5045173;28;20059;-71
2024/01/03 04:55:48;;;;;;;4.63;3.00;;;;;;;;;;5041357;28;20036;-71
2024/01/03 04:58:14;;;;;;;5.25;3.55;;;;;;;;;;5063481;28;20040;-71
2024/01/03 05:00:39;;;;;;;4.30;3.10;;;;;;;;;;5041408;28;20040;-71
2024/01/03 05:03:04;;;;;;;5.25;3.58;;;;;;;;;;5044025;28;20037;-71
2024/01/03 05:05:29;;;;;;;4.43;3.17;;;;;;;;;;5042104;28;20481;-71
2024/01/03 05:07:56;;;;;;;3.42;3.03;;;;;;;;;;5048323;28;20112;-71
2024/01/03 05:10:21;;;;;;;5.22;3.28;;;;;;;;;;5048530;28;20053;-71
2024/01/03 05:12:46;;;;;;;3.92;3.15;;;;;;;;;;5053022;28;20072;-71
2024/01/03 05:15:12;;;;;;;3.72;3.20;;;;;;;;;;5060245;28;20033;-71
2024/01/03 05:17:37;;;;;;;4.55;3.08;;;;;;;;;;5044071;28;20040;-71
2024/01/03 05:20:04;;;;;;;4.40;3.33;;;;;;;;;;5052189;28;20027;-71
2024/01/03 05:22:31;;;;;;;3.42;3.00;;;;;;;;;;5051842;28;20037;-71
2024/01/03 05:24:56;;;;;;;4.35;3.35;;;;;;;;;;5052976;28;20029;-72
2024/01/03 05:27:21;;;;;;;4.68;3.30;;;;;;;;;;5048917;28;20094;-71
2024/01/03 05:29:47;;;;;;;4.13;3.08;;;;;;;;;;5052205;28;20112;-71
2024/01/03 05:32:13;;;;;;;3.95;3.05;;;;;;;;;;5055962;28;20033;-71
2024/01/03 05:34:38;;;;;;;3.53;2.95;;;;;;;;;;5058826;28;20049;-71
2024/01/03 05:37:03;;;;;;;4.32;3.42;;;;;;;;;;5048250;28;20051;-71
2024/01/03 05:39:29;;;;;;;3.83;2.92;;;;;;;;;;5040969;28;20038;-71
2024/01/03 05:41:54;;;;;;;4.55;3.10;;;;;;;;;;5049385;28;20042;-71
2024/01/03 05:44:19;;;;;;;4.10;3.05;;;;;;;;;;5057005;28;20030;-71
2024/01/03 05:46:45;;;;;;;3.45;2.88;;;;;;;;;;5053105;28;20476;-72
2024/01/03 05:49:11;;;;;;;4.63;3.47;;;;;;;;;;5052683;28;20518;-72
2024/01/03 05:51:36;;;;;;;3.85;3.00;;;;;;;;;;5056912;28;20025;-72
2024/01/03 05:54:02;;;;;;;4.35;3.05;;;;;;;;;;5055625;28;20041;-71
2024/01/03 05:56:27;;;;;;;4.80;3.33;;;;;;;;;;5051745;28;20043;-71
2024/01/03 05:58:52;;;;;;;4.18;3.42;;;;;;;;;;5039782;28;21436;-71
2024/01/03 06:01:18;;;;;;;4.70;3.25;;;;;;;;;;5060888;28;20333;-71
2024/01/03 06:03:43;;;;;;;4.68;3.40;;;;;;;;;;5059648;28;20044;-72
2024/01/03 06:06:09;;;;;;;4.30;3.17;;;;;;;;;;5055570;28;20051;-72
2024/01/03 06:08:35;;;;;;;3.85;3.10;;;;;;;;;;5058761;28;20016;-71
2024/01/03 06:11:00;;;;;;;4.15;3.30;;;;;;;;;;5039662;28;20025;-73
2024/01/03 06:13:25;;;;;;;4.40;3.67;;;;;;;;;;5033987;28;20116;-72
2024/01/03 06:15:51;;;;;;;4.25;3.17;;;;;;;;;;5052588;28;20766;-72
2024/01/03 06:18:16;;;;;;;6.35;3.58;;;;;;;;;;5053820;28;20105;-73
2024/01/03 06:20:42;;;;;;;5.07;3.22;;;;;;;;;;5050989;28;20533;-74
2024/01/03 06:23:07;;;;;;;4.85;3.38;;;;;;;;;;5062528;28;20457;-74
2024/01/03 06:25:33;;;;;;;5.15;3.50;;;;;;;;;;5043706;28;20050;-73
2024/01/03 06:27:58;;;;;;;4.47;2.97;;;;;;;;;;5051163;28;20020;-74
2024/01/03 06:30:23;;;;;;;5.63;3.05;;;;;;;;;;5041843;28;20021;-72
2024/01/03 06:32:48;;;;;;;4.60;3.33;;;;;;;;;;5047943;28;20205;-72
2024/01/03 06:35:14;;;;;;;4.07;3.03;;;;;;;;;;5056306;28;20078;-72
2024/01/03 06:37:40;;;;;;;3.55;3.00;;;;;;;;;;5043577;28;20114;-72
2024/01/03 06:40:05;;;;;;;5.40;3.60;;;;;;;;;;5048624;28;20415;-71
2024/01/03 06:42:30;;;;;;;4.80;3.08;;;;;;;;;;5050845;28;20724;-71
2024/01/03 06:44:56;;;;;;;4.20;3.05;;;;;;;;;;5030396;28;20017;-71
2024/01/03 06:47:21;;;;;;;4.72;3.15;;;;;;;;;;5059233;28;20051;-71
2024/01/03 06:49:46;;;;;;;6.18;3.35;;;;;;;;;;5059657;28;20013;-72
2024/01/03 06:52:12;;;;;;;4.68;3.25;;;;;;;;;;5047735;28;20040;-72
2024/01/03 06:54:37;;;;;;;4.55;3.13;;;;;;;;;;5049394;28;20043;-72
2024/01/03 06:57:03;;;;;;;4.18;2.80;;;;;;;;;;5050655;28;20048;-71
2024/01/03 06:59:28;;;;;;;4.03;3.05;;;;;;;;;;5046963;28;20032;-71
2024/01/03 07:01:53;;;;;;;6.05;3.47;;;;;;;;;;5052442;28;20036;-71
2024/01/03 07:04:21;;;;;;;3.70;2.83;;;;;;;;;;5055282;28;20407;-71
2024/01/03 07:06:47;;;;;;;4.18;3.10;;;;;;;;;;5034617;28;20025;-71
2024/01/03 07:09:12;;;;;;;4.50;3.10;;;;;;;;;;5038283;28;20040;-71
2024/01/03 07:11:38;;;;;;;6.30;3.03;;;;;;;;;;5041765;28;20082;-71
2024/01/03 07:14:04;;;;;;;4.20;3.40;;;;;;;;;;5052708;28;20412;-72
2024/01/03 07:16:29;;;;;;;4.85;2.90;;;;;;;;;;5041669;28;20055;-69
2024/01/03 07:18:55;;;;;;;3.90;3.03;;;;;;;;;;5038761;28;20052;-69
2024/01/03 07:21:22;;;;;;;4.78;3.38;;;;;;;;;;5050711;28;20020;-72
2024/01/03 07:23:49;;;;;;;4.10;3.20;;;;;;;;;;5038034;28;20492;-70
2024/01/03 07:26:14;;;;;;;4.47;3.40;;;;;;;;;;5035629;28;20166;-71
2024/01/03 07:28:39;;;;;;;4.35;2.97;;;;;;;;;;5043050;28;20064;-70
2024/01/03 07:31:05;;;;;;;4.30;2.92;;;;;;;;;;5042118;28;20045;-70
2024/01/03 07:33:31;;;;;;;4.20;3.10;;;;;;;;;;5039038;28;20041;-70
2024/01/03 07:35:56;;;;;;;4.45;3.00;;;;;;;;;;5046930;28;20056;-70
2024/01/03 07:38:22;;;;;;;4.40;3.10;;;;;;;;;;5052192;28;20032;-71
2024/01/03 07:40:47;;;;;;;3.85;3.00;;;;;;;;;;5061461;28;20032;-71
2024/01/03 07:43:12;;;;;;;4.72;3.15;;;;;;;;;;5064944;28;20447;-72
2024/01/03 07:45:38;;;;;;;4.80;2.90;;;;;;;;;;5061938;28;20096;-71
2024/01/03 07:48:03;;;;;;;3.33;2.65;;;;;;;;;;5058581;28;20044;-71
2024/01/03 07:50:29;;;;;;;4.38;3.00;;;;;;;;;;5047988;28;20056;-71
2024/01/03 07:52:56;;;;;;;5.80;3.13;;;;;;;;;;5042635;28;20534;-70
2024/01/03 07:55:22;;;;;;;5.10;3.60;;;;;;;;;;5045068;28;20029;-70
2024/01/03 07:57:48;;;;;;;4.20;2.78;;;;;;;;;;5047306;28;20128;-70
2024/01/03 08:00:13;;;;;;;5.10;3.30;;;;;;;;;;5056312;28;20524;-69
2024/01/03 08:02:39;;;;;;;3.83;3.13;;;;;;;;;;4998505;28;1221421;-70
2024/01/03 08:05:07;;;;;;;4.60;3.30;;;;;;;;;;5045917;28;20115;-70
2024/01/03 08:07:38;;;;;;;4.40;3.25;;;;;;;;;;5040999;28;20117;-70
2024/01/03 08:10:03;;;;;;;5.47;3.30;;;;;;;;;;5043430;28;20028;-70
2024/01/03 08:12:29;;;;;;;3.80;2.80;;;;;;;;;;5050526;28;20407;-71
2024/01/03 08:14:54;;;;;;;3.60;2.92;;;;;;;;;;5047407;28;20156;-71
2024/01/03 08:17:19;;;;;;;4.15;3.10;;;;;;;;;;5047029;28;20055;-70
2024/01/03 08:19:45;;;;;;;4.30;3.50;;;;;;;;;;5048546;28;20227;-70
2024/01/03 08:22:10;;;;;;;3.90;2.92;;;;;;;;;;5045928;28;20520;-72
2024/01/03 08:24:35;;;;;;;5.55;3.30;;;;;;;;;;5043084;28;20044;-71
2024/01/03 08:27:01;;;;;;;4.57;2.85;;;;;;;;;;5041335;28;20036;-71
2024/01/03 08:29:28;;;;;;;4.65;2.78;;;;;;;;;;5043162;28;20025;-73
2024/01/03 08:31:55;;;;;;;4.63;3.13;;;;;;;;;;5063532;28;20037;-72
2024/01/03 08:34:20;;;;;;;3.88;3.10;;;;;;;;;;5063856;28;20532;-73
2024/01/03 08:36:45;;;;;;;4.18;3.08;;;;;;;;;;5050015;28;20129;-73
2024/01/03 08:39:11;;;;;;;5.13;3.08;;;;;;;;;;5050186;28;20025;-71
2024/01/03 08:41:36;;;;;;;5.30;3.30;;;;;;;;;;5043441;28;20037;-70
2024/01/03 08:44:02;;;;;;;4.55;2.95;;;;;;;;;;5042574;28;20037;-71
2024/01/03 08:46:43;;;;;;;5.30;3.50;;;;;;;;;;5043330;28;20094;-72
2024/01/03 08:49:08;;;;;;;6.07;3.28;;;;;;;;;;5046778;28;20602;-72
2024/01/03 08:51:34;;;;;;;4.68;3.65;;;;;;;;;;5059143;28;20045;-73
2024/01/03 08:53:59;;;;;;;4.38;3.25;;;;;;;;;;5043913;28;20037;-72
2024/01/03 08:56:24;;;;;;;5.38;3.35;;;;;;;;;;5048937;28;20120;-71
2024/01/03 08:58:50;;;;;;;4.63;3.20;;;;;;;;;;5044458;28;20033;-71
2024/01/03 09:01:19;;;;;;;4.13;3.20;;;;;;;;;;5056025;28;20109;-70
2024/01/03 09:03:45;;;;;;;3.78;3.05;;;;;;;;;;5049077;28;20065;-71
2024/01/03 09:06:11;;;;;;;4.90;3.50;;;;;;;;;;5059905;28;20827;-70
2024/01/03 09:08:36;;;;;;;5.22;3.42;;;;;;;;;;5061621;28;20582;-70
2024/01/03 09:11:07;;;;;;;5.03;3.78;;;;;;;;;;5044160;28;20033;-70
2024/01/03 09:13:37;;;;;;;4.28;3.20;;;;;;;;;;5050110;28;20028;-71
2024/01/03 09:16:03;;;;;;;4.97;3.05;;;;;;;;;;5044224;28;20045;-70
2024/01/03 09:18:28;;;;;;;6.30;3.40;;;;;;;;;;5049523;28;20082;-71
2024/01/03 09:20:53;;;;;;;4.35;3.47;;;;;;;;;;5042166;28;21059;-70
2024/01/03 09:23:19;;;;;;;6.07;3.80;;;;;;;;;;5048535;28;20048;-71
2024/01/03 09:25:44;;;;;;;5.20;3.47;;;;;;;;;;5047155;28;20029;-71
2024/01/03 09:28:10;;;;;;;5.10;3.45;;;;;;;;;;5046752;28;20041;-71
2024/01/03 09:30:36;;;;;;;4.57;3.60;;;;;;;;;;5060274;28;20143;-71
2024/01/03 09:33:01;;;;;;;5.35;3.58;;;;;;;;;;5046669;28;20089;-71
2024/01/03 09:35:27;;;;;;;5.65;3.80;;;;;;;;;;5046054;28;20029;-70
2024/01/03 09:37:52;;;;;;;5.50;3.53;;;;;;;;;;5046391;28;20420;-72
2024/01/03 09:40:18;;;;;;;4.72;3.33;;;;;;;;;;5043121;28;20037;-72
2024/01/03 09:42:43;;;;;;;4.90;3.47;;;;;;;;;;5048367;28;20132;-72
2024/01/03 09:45:08;;;;;;;4.68;3.65;;;;;;;;;;5048616;28;20139;-71
2024/01/03 09:47:34;;;;;;;4.60;3.40;;;;;;;;;;5050921;28;20029;-71
2024/01/03 09:49:59;;;;;;;4.30;3.38;;;;;;;;;;5063762;28;20032;-72
2024/01/03 09:52:24;;;;;;;4.47;3.28;;;;;;;;;;5045854;28;20185;-71
2024/01/03 09:54:50;;;;;;;5.45;3.83;;;;;;;;;;5030645;28;20611;-73
2024/01/03 09:57:18;;;;;;;5.85;3.35;;;;;;;;;;5054699;28;20048;-72
2024/01/03 09:59:43;;;;;;;7.28;5.13;;;;;;;;;;5044560;28;20234;-72
2024/01/03 10:02:11;;;;;;;6.57;3.67;;;;;;;;;;5046904;28;20108;-70
2024/01/03 10:04:37;;;;;;;5.35;3.58;;;;;;;;;;5045597;28;20183;-71
2024/01/03 10:07:02;;;;;;;5.45;3.97;;;;;;;;;;5060077;28;20504;-71
2024/01/03 10:09:49;;;;;;;5.15;3.80;;;;;;;;;;5057942;28;20095;-71
2024/01/03 10:12:15;;;;;;;7.75;3.72;;;;;;;;;;5048757;28;20114;-71
2024/01/03 10:14:41;;;;;;;7.30;4.07;;;;;;;;;;5056871;28;20522;-70
2024/01/03 10:17:09;;;;;;;5.65;3.90;;;;;;;;;;5060879;28;20136;-70
2024/01/03 10:19:35;;;;;;;6.53;4.15;;;;;;;;;;5054010;28;20595;-70
2024/01/03 10:22:02;;;;;;;6.03;3.88;;;;;;;;;;5052424;28;20120;-71
2024/01/03 10:24:27;;;;;;;6.22;3.90;;;;;;;;;;5037428;28;20040;-71
2024/01/03 10:26:52;;;;;;;5.15;3.80;;;;;;;;;;5042552;28;20029;-71
2024/01/03 10:29:18;;;;;;;7.47;3.95;;;;;;;;;;5041407;28;20094;-71
2024/01/03 10:31:49;;;;;;;7.03;3.90;;;;;;;;;;5046049;28;20569;-71
2024/01/03 10:34:19;;;;;;;6.05;3.70;;;;;;;;;;5043820;28;20064;-71
2024/01/03 10:36:49;;;;;;;6.75;4.20;;;;;;;;;;5055740;28;20033;-72
2024/01/03 10:39:16;;;;;;;5.55;3.70;;;;;;;;;;5043557;28;20742;-71
2024/01/03 10:41:43;;;;;;;5.75;3.90;;;;;;;;;;5039403;28;20017;-72
2024/01/03 10:44:08;;;;;;;8.05;4.10;;;;;;;;;;5040907;28;20060;-71
2024/01/03 10:46:34;;;;;;;8.07;4.07;;;;;;;;;;5041412;28;20040;-71
2024/01/03 10:49:01;;;;;;;5.03;3.67;;;;;;;;;;5042728;28;20056;-71
2024/01/03 10:51:26;;;;;;;6.00;3.70;;;;;;;;;;5052452;28;20046;-71
2024/01/03 10:53:53;;;;;;;4.53;3.67;;;;;;;;;;5040580;28;20021;-71
2024/01/03 10:56:18;;;;;;;6.57;4.03;;;;;;;;;;5043420;28;20112;-72
2024/01/03 10:58:44;;;;;;;5.68;4.10;;;;;;;;;;5053707;28;20017;-72
2024/01/03 11:01:14;;;;;;;5.55;3.80;;;;;;;;;;5047867;28;20024;-70
2024/01/03 11:03:43;;;;;;;6.13;4.35;;;;;;;;;;5053340;28;20037;-71
2024/01/03 11:06:24;;;;;;;5.28;3.92;;;;;;;;;;5038836;28;20032;-72
2024/01/03 11:08:50;;;;;;;5.47;3.90;;;;;;;;;;5056034;28;20064;-72
2024/01/03 11:11:32;;;;;;;5.43;4.07;;;;;;;;;;5056663;28;20056;-72
2024/01/03 11:13:58;;;;;;;5.55;3.80;;;;;;;;;;5052244;28;20033;-71
2024/01/03 11:16:36;;;;;;;5.95;4.32;;;;;;;;;;5045401;28;20044;-71
2024/01/03 11:19:02;;;;;;;5.93;3.85;;;;;;;;;;5046708;28;20040;-71
2024/01/03 11:21:30;;;;;;;5.63;4.28;;;;;;;;;;5046396;28;20025;-71
2024/01/03 11:23:56;;;;;;;6.30;4.10;;;;;;;;;;5042280;28;20440;-70
2024/01/03 11:26:40;;;;;;;6.03;4.38;;;;;;;;;;5043644;28;20041;-71
2024/01/03 11:29:05;;;;;;;5.32;3.65;;;;;;;;;;5044381;28;20041;-72
2024/01/03 11:31:50;;;;;;;5.15;4.07;;;;;;;;;;5046812;28;20579;-71
2024/01/03 11:34:35;;;;;;;6.18;4.18;;;;;;;;;;5046604;28;20045;-71
2024/01/03 11:37:01;;;;;;;7.90;4.18;;;;;;;;;;5030294;28;20115;-71
2024/01/03 11:39:36;;;;;;;8.13;4.05;;;;;;;;;;5044640;28;20534;-70
2024/01/03 11:42:04;;;;;;;7.07;4.32;;;;;;;;;;5057018;28;20045;-71
2024/01/03 11:44:30;;;;;;;6.38;4.10;;;;;;;;;;5057905;28;20034;-71
2024/01/03 11:47:04;;;;;;;6.05;4.25;;;;;;;;;;5056144;28;20021;-72
2024/01/03 11:49:30;;;;;;;6.00;4.07;;;;;;;;;;5046225;28;20143;-72
2024/01/03 11:51:55;;;;;;;4.60;3.95;;;;;;;;;;5059624;28;20401;-71
2024/01/03 11:54:21;;;;;;;5.80;4.07;;;;;;;;;;5045689;28;20030;-70
2024/01/03 11:56:46;;;;;;;5.10;3.83;;;;;;;;;;5043841;28;20033;-72
2024/01/03 11:59:11;;;;;;;7.07;4.30;;;;;;;;;;5052353;28;20561;-71
2024/01/03 12:01:37;;;;;;;6.75;4.60;;;;;;;;;;5048460;28;20022;-71
2024/01/03 12:04:08;;;;;;;5.70;3.67;;;;;;;;;;5050600;28;20028;-71
2024/01/03 12:06:34;;;;;;;6.78;3.92;;;;;;;;;;5050720;28;20045;-70
2024/01/03 12:08:59;;;;;;;5.50;4.18;;;;;;;;;;5049661;28;20080;-70
2024/01/03 12:11:25;;;;;;;5.45;3.95;;;;;;;;;;5055944;28;20045;-71
2024/01/03 12:13:51;;;;;;;6.18;4.20;;;;;;;;;;5044384;28;20090;-70
2024/01/03 12:16:16;;;;;;;5.88;3.95;;;;;;;;;;5051581;28;20079;-71
2024/01/03 12:18:52;;;;;;;10.88;4.30;;;;;;;;;;5045591;28;20124;-71
2024/01/03 12:21:18;;;;;;;6.63;4.57;;;;;;;;;;5043052;28;20522;-72
2024/01/03 12:23:55;;;;;;;5.70;4.07;;;;;;;;;;5040926;28;20053;-71
2024/01/03 12:26:21;;;;;;;5.40;3.78;;;;;;;;;;5044844;28;20040;-71
2024/01/03 12:28:46;;;;;;;6.28;4.07;;;;;;;;;;5061213;28;20395;-71
2024/01/03 12:31:18;;;;;;;6.93;3.92;;;;;;;;;;5045665;28;20035;-73
2024/01/03 12:33:43;;;;;;;6.07;4.05;;;;;;;;;;5045615;28;20051;-73
2024/01/03 12:36:09;;;;;;;5.10;3.90;;;;;;;;;;5041174;28;20125;-71
2024/01/03 12:38:34;;;;;;;5.88;3.92;;;;;;;;;;5045362;28;20064;-71
2024/01/03 12:40:59;;;;;;;5.00;3.90;;;;;;;;;;5044590;28;20508;-72
2024/01/03 12:43:25;;;;;;;5.32;3.90;;;;;;;;;;5046505;28;20041;-71
2024/01/03 12:45:50;;;;;;;6.32;4.20;;;;;;;;;;5056964;28;20029;-70
2024/01/03 12:48:16;;;;;;;5.28;4.20;;;;;;;;;;5052718;28;20506;-70
2024/01/03 12:50:42;;;;;;;5.25;3.88;;;;;;;;;;5058096;28;20036;-71
2024/01/03 12:53:07;;;;;;;5.60;3.80;;;;;;;;;;5039212;28;20065;-71
2024/01/03 12:55:32;;;;;;;6.00;4.40;;;;;;;;;;5055366;28;20069;-71
2024/01/03 12:57:58;;;;;;;5.55;4.07;;;;;;;;;;5044487;28;20734;-69
2024/01/03 13:00:23;;;;;;;5.25;3.80;;;;;;;;;;5040348;28;20365;-69
2024/01/03 13:02:48;;;;;;;5.25;3.83;;;;;;;;;;5053748;28;20076;-69
2024/01/03 13:05:14;;;;;;;5.35;4.00;;;;;;;;;;5041156;28;20080;-69
2024/01/03 13:07:39;;;;;;;5.25;3.83;;;;;;;;;;5039537;28;20052;-70
2024/01/03 13:10:06;;;;;;;6.13;4.45;;;;;;;;;;5043156;28;20145;-70
2024/01/03 13:12:31;;;;;;;5.15;4.13;;;;;;;;;;5044217;28;20039;-73
2024/01/03 13:14:56;;;;;;;5.97;3.85;;;;;;;;;;5039880;28;20041;-73
2024/01/03 13:17:23;;;;;;;5.60;3.45;;;;;;;;;;5041052;28;20045;-72
2024/01/03 13:19:48;;;;;;;7.93;4.78;;;;;;;;;;5040610;28;20033;-74
2024/01/03 13:22:13;;;;;;;7.35;3.85;;;;;;;;;;5044969;28;20071;-72
2024/01/03 13:24:40;;;;;;;5.38;4.35;;;;;;;;;;5061757;28;20037;-73
2024/01/03 13:27:06;;;;;;;5.18;3.90;;;;;;;;;;5060910;28;20041;-73
2024/01/03 13:29:34;;;;;;;6.28;3.88;;;;;;;;;;5063528;28;20036;-72
2024/01/03 13:31:59;;;;;;;5.72;3.95;;;;;;;;;;5060302;28;20036;-73
2024/01/03 13:34:25;;;;;;;5.63;4.05;;;;;;;;;;5035648;28;20037;-73
2024/01/03 13:36:50;;;;;;;5.88;3.85;;;;;;;;;;5043300;28;20068;-75
2024/01/03 13:39:15;;;;;;;4.80;3.55;;;;;;;;;;5043939;28;20041;-76
2024/01/03 13:41:41;;;;;;;6.97;4.30;;;;;;;;;;5057618;28;20049;-75
2024/01/03 13:44:06;;;;;;;5.68;3.88;;;;;;;;;;5055601;28;20033;-72
2024/01/03 13:46:31;;;;;;;6.72;3.90;;;;;;;;;;5042943;28;20025;-73
2024/01/03 13:48:57;;;;;;;5.32;3.72;;;;;;;;;;5041270;28;20033;-73
2024/01/03 13:51:22;;;;;;;6.18;3.85;;;;;;;;;;5043396;28;20404;-73
2024/01/03 13:53:53;;;;;;;8.95;3.80;;;;;;;;;;5053466;28;20067;-77
2024/01/03 13:56:23;;;;;;;9.30;4.07;;;;;;;;;;5042117;28;20448;-75
2024/01/03 13:58:48;;;;;;;;;;;;;;;;;;5043752;28;20041;-74
2024/01/03 14:01:14;;;;;;;5.30;3.87;;;;;;;;;;5055236;28;20015;-72
2024/01/03 14:03:39;;;;;;;8.23;3.75;;;;;;;;;;5038456;28;20303;-73
2024/01/03 14:06:05;;;;;;;5.43;3.53;;;;;;;;;;5027270;28;20513;-74
2024/01/03 14:08:31;;;;;;;6.15;3.65;;;;;;;;;;5042046;28;20461;-73
2024/01/03 14:10:56;;;;;;;4.93;3.67;;;;;;;;;;5038482;28;20059;-72
2024/01/03 14:13:21;;;;;;;6.60;4.20;;;;;;;;;;5039867;28;20033;-72
2024/01/03 14:15:47;;;;;;;6.03;3.20;;;;;;;;;;5046964;28;20467;-73
2024/01/03 14:18:12;;;;;;;6.05;3.90;;;;;;;;;;5040320;28;20049;-74
2024/01/03 14:20:37;;;;;;;6.88;3.80;;;;;;;;;;5043866;28;20100;-75
2024/01/03 14:23:03;;;;;;;6.25;3.80;;;;;;;;;;5045145;28;20524;-74
2024/01/03 14:25:28;;;;;;;6.50;3.78;;;;;;;;;;5033392;28;20067;-74
2024/01/03 14:27:54;;;;;;;6.30;3.35;;;;;;;;;;5060161;28;21679;-73
2024/01/03 14:30:19;;;;;;;5.50;3.75;;;;;;;;;;5048134;28;20067;-73
2024/01/03 14:32:44;;;;;;;5.75;4.00;;;;;;;;;;5044107;28;20636;-72
2024/01/03 14:35:10;;;;;;;5.15;3.83;;;;;;;;;;5054606;28;20880;-75
2024/01/03 14:37:35;;;;;;;5.90;3.40;;;;;;;;;;5038681;28;20059;-72